createdAt,value
2019-01-06T00:01:25.768Z,99.90
2019-01-06T00:04:14.234Z,99.90
2019-01-06T00:06:46.396Z,99.90
2019-01-06T00:09:31.862Z,99.90
2019-01-06T00:12:13.026Z,99.90
2019-01-06T00:14:49.264Z,99.90
2019-01-06T00:17:39.544Z,99.90
2019-01-06T00:20:17.360Z,99.90
2019-01-06T00:23:05.500Z,99.90
2019-01-06T00:25:40.747Z,99.90
2019-01-06T00:28:17.029Z,99.90
2019-01-06T00:30:55.351Z,99.90
2019-01-06T00:33:39.769Z,99.90
2019-01-06T00:36:11.907Z,99.90
2019-01-06T00:38:44.880Z,99.90
2019-01-06T00:41:19.980Z,99.90
2019-01-06T00:44:01.100Z,99.90
2019-01-06T00:46:49.358Z,99.90
2019-01-06T00:49:39.386Z,99.90
2019-01-06T00:52:12.601Z,99.90
2019-01-06T00:54:42.842Z,99.90
2019-01-06T00:57:23.731Z,99.90
2019-01-06T00:59:53.985Z,99.90
2019-01-06T01:02:26.138Z,99.90
2019-01-06T01:05:01.359Z,99.90
2019-01-06T01:07:33.520Z,99.90
2019-01-06T01:10:10.832Z,99.90
2019-01-06T01:12:41.123Z,99.90
2019-01-06T01:15:13.245Z,99.90
2019-01-06T01:17:51.166Z,99.50
2019-01-06T01:20:25.973Z,98.90
2019-01-06T01:22:58.114Z,99.40
2019-01-06T01:25:46.509Z,99.70
2019-01-06T01:28:22.690Z,99.90
2019-01-06T01:30:57.786Z,99.90
2019-01-06T01:33:46.256Z,99.80
2019-01-06T01:36:26.903Z,99.90
2019-01-06T01:39:12.322Z,99.90
2019-01-06T01:42:00.476Z,99.50
2019-01-06T01:44:30.756Z,99.20
2019-01-06T01:47:19.256Z,99.20
2019-01-06T01:50:07.337Z,99.50
2019-01-06T01:52:41.940Z,99.50
2019-01-06T01:55:15.609Z,99.40
2019-01-06T01:58:03.860Z,99.30
2019-01-06T02:00:36.005Z,99.30
2019-01-06T02:03:08.111Z,99.10
2019-01-06T02:05:56.002Z,99.00
2019-01-06T02:08:26.247Z,99.10
2019-01-06T02:10:58.398Z,99.10
2019-01-06T02:13:46.876Z,99.10
2019-01-06T02:16:17.162Z,99.10
2019-01-06T02:19:01.257Z,99.00
2019-01-06T02:21:35.934Z,98.80
2019-01-06T02:24:20.218Z,98.40
2019-01-06T02:27:08.427Z,98.30
2019-01-06T02:29:40.570Z,97.80
2019-01-06T02:32:28.814Z,97.20
2019-01-06T02:35:00.611Z,97.30
2019-01-06T02:37:35.479Z,97.50
2019-01-06T02:40:07.369Z,97.80
2019-01-06T02:42:48.414Z,96.90
2019-01-06T02:45:36.587Z,96.30
2019-01-06T02:48:12.590Z,96.10
2019-01-06T02:50:45.758Z,96.60
2019-01-06T02:53:33.872Z,96.50
2019-01-06T02:56:08.668Z,96.70
2019-01-06T02:58:46.638Z,96.90
2019-01-06T03:01:18.750Z,95.90
2019-01-06T03:03:50.897Z,96.20
2019-01-06T03:06:26.880Z,97.40
2019-01-06T03:09:15.341Z,96.90
2019-01-06T03:11:47.463Z,96.70
2019-01-06T03:14:35.954Z,96.80
2019-01-06T03:17:16.935Z,96.30
2019-01-06T03:20:04.956Z,96.20
2019-01-06T03:22:46.864Z,96.60
2019-01-06T03:25:22.097Z,96.80
2019-01-06T03:28:04.737Z,97.10
2019-01-06T03:30:52.939Z,97.30
2019-01-06T03:33:28.102Z,98.10
2019-01-06T03:36:00.291Z,98.50
2019-01-06T03:38:38.590Z,98.80
2019-01-06T03:41:26.713Z,99.20
2019-01-06T03:43:58.861Z,99.40
2019-01-06T03:46:33.699Z,99.60
2019-01-06T03:49:08.208Z,99.90
2019-01-06T03:51:40.352Z,99.90
2019-01-06T03:54:12.477Z,99.90
2019-01-06T03:56:56.601Z,99.90
2019-01-06T03:59:26.857Z,99.90
2019-01-06T04:02:01.686Z,99.90
2019-01-06T04:04:40.950Z,99.90
2019-01-06T04:07:22.428Z,99.90
2019-01-06T04:10:09.674Z,99.90
2019-01-06T04:12:56.942Z,99.90
2019-01-06T04:15:45.072Z,99.90
2019-01-06T04:18:25.957Z,99.90
2019-01-06T04:21:14.451Z,99.90
2019-01-06T04:23:50.578Z,99.90
2019-01-06T04:26:28.178Z,99.90
2019-01-06T04:29:06.041Z,99.90
2019-01-06T04:31:54.230Z,99.90
2019-01-06T04:34:29.017Z,99.90
2019-01-06T04:37:08.045Z,99.90
2019-01-06T04:39:55.512Z,99.90
2019-01-06T04:42:39.487Z,99.90
2019-01-06T04:45:27.441Z,99.90
2019-01-06T04:48:04.994Z,99.80
2019-01-06T04:50:39.819Z,99.40
2019-01-06T04:53:23.953Z,99.30
2019-01-06T04:56:11.397Z,98.60
2019-01-06T04:58:43.510Z,98.50
2019-01-06T05:01:17.005Z,98.10
2019-01-06T05:04:05.457Z,98.10
2019-01-06T05:06:52.275Z,97.90
2019-01-06T05:09:40.434Z,97.60
2019-01-06T05:12:12.576Z,97.40
2019-01-06T05:14:51.747Z,96.40
2019-01-06T05:17:23.859Z,94.90
2019-01-06T05:20:10.979Z,94.60
2019-01-06T05:22:59.793Z,94.70
2019-01-06T05:25:44.007Z,95.40
2019-01-06T05:28:32.536Z,95.30
2019-01-06T05:31:08.870Z,95.20
2019-01-06T05:33:47.163Z,95.50
2019-01-06T05:36:35.159Z,96.00
2019-01-06T05:39:11.754Z,96.10
2019-01-06T05:41:43.908Z,96.40
2019-01-06T05:44:28.273Z,96.90
2019-01-06T05:47:00.401Z,97.30
2019-01-06T05:49:41.338Z,97.90
2019-01-06T05:52:16.160Z,97.80
2019-01-06T05:55:00.440Z,97.80
2019-01-06T05:57:30.703Z,97.90
2019-01-06T06:00:15.995Z,96.50
2019-01-06T06:02:53.727Z,95.70
2019-01-06T06:05:34.867Z,95.50
2019-01-06T06:08:13.653Z,95.70
2019-01-06T06:10:45.772Z,96.00
2019-01-06T06:13:34.355Z,96.20
2019-01-06T06:16:04.630Z,96.10
2019-01-06T06:18:43.777Z,96.10
2019-01-06T06:21:30.977Z,96.10
2019-01-06T06:24:08.779Z,96.20
2019-01-06T06:26:41.945Z,96.20
2019-01-06T06:29:14.091Z,96.60
2019-01-06T06:32:02.387Z,96.90
2019-01-06T06:34:50.409Z,96.80
2019-01-06T06:37:31.416Z,96.50
2019-01-06T06:40:15.630Z,95.80
2019-01-06T06:42:53.486Z,95.50
2019-01-06T06:45:31.311Z,95.90
2019-01-06T06:48:10.842Z,96.00
2019-01-06T06:50:55.304Z,95.90
2019-01-06T06:53:42.264Z,95.60
2019-01-06T06:56:15.470Z,94.40
2019-01-06T06:58:50.514Z,94.20
2019-01-06T07:01:43.060Z,94.10
2019-01-06T07:04:31.473Z,93.60
2019-01-06T07:07:19.478Z,93.30
2019-01-06T07:09:57.170Z,93.10
2019-01-06T07:12:47.400Z,93.00
2019-01-06T07:15:25.197Z,92.80
2019-01-06T07:18:13.356Z,93.40
2019-01-06T07:20:43.621Z,93.70
2019-01-06T07:23:31.859Z,94.10
2019-01-06T07:26:20.048Z,94.10
2019-01-06T07:28:50.303Z,93.60
2019-01-06T07:31:28.433Z,93.50
2019-01-06T07:34:09.559Z,93.70
2019-01-06T07:36:57.816Z,93.50
2019-01-06T07:39:30.782Z,93.80
2019-01-06T07:42:02.935Z,93.90
2019-01-06T07:44:35.155Z,93.90
2019-01-06T07:47:25.400Z,93.70
2019-01-06T07:50:03.523Z,94.00
2019-01-06T07:52:35.693Z,94.30
2019-01-06T07:55:08.854Z,94.40
2019-01-06T07:57:39.098Z,94.10
2019-01-06T08:00:23.338Z,93.60
2019-01-06T08:03:08.168Z,93.70
2019-01-06T08:05:40.502Z,92.20
2019-01-06T08:08:21.386Z,91.20
2019-01-06T08:10:53.564Z,91.50
2019-01-06T08:13:43.794Z,90.10
2019-01-06T08:16:19.724Z,90.30
2019-01-06T08:18:52.927Z,91.20
2019-01-06T08:21:34.062Z,91.50
2019-01-06T08:27:08.502Z,91.60
2019-01-06T08:29:38.769Z,91.50
2019-01-06T08:32:13.591Z,82.50
2019-01-06T08:34:48.680Z,82.50
2019-01-06T08:37:36.903Z,84.00
2019-01-06T08:40:27.253Z,86.60
2019-01-06T08:43:03.618Z,84.90
2019-01-06T08:45:39.729Z,83.30
2019-01-06T08:48:28.112Z,80.70
2019-01-06T08:51:02.970Z,79.70
2019-01-06T08:53:51.151Z,80.20
2019-01-06T08:56:26.115Z,80.50
2019-01-06T08:58:58.752Z,77.10
2019-01-06T09:01:29.017Z,76.20
2019-01-06T09:04:10.062Z,75.30
2019-01-06T09:06:42.204Z,74.30
2019-01-06T09:09:29.629Z,71.50
2019-01-06T09:11:59.971Z,70.00
2019-01-06T09:14:32.113Z,69.90
2019-01-06T09:17:12.975Z,67.90
2019-01-06T09:19:53.608Z,69.30
2019-01-06T09:22:44.178Z,68.80
2019-01-06T09:25:40.737Z,68.70
2019-01-06T09:28:22.762Z,69.70
2019-01-06T09:31:11.239Z,68.80
2019-01-06T09:33:55.604Z,68.60
2019-01-06T09:36:33.780Z,65.80
2019-01-06T09:39:10.656Z,64.80
2019-01-06T09:41:47.020Z,62.90
2019-01-06T09:44:30.850Z,60.20
2019-01-06T09:47:05.970Z,62.80
2019-01-06T09:49:44.217Z,64.00
2019-01-06T09:52:32.905Z,64.50
2019-01-06T09:55:21.266Z,65.10
2019-01-06T09:57:56.394Z,65.20
2019-01-06T10:00:44.894Z,65.90
2019-01-06T10:03:25.790Z,67.70
2019-01-06T10:06:01.983Z,68.30
2019-01-06T10:08:50.435Z,69.00
2019-01-06T10:11:38.600Z,70.00
2019-01-06T10:14:16.911Z,71.50
2019-01-06T10:16:57.766Z,72.90
2019-01-06T10:19:48.006Z,73.90
2019-01-06T10:22:26.801Z,75.00
2019-01-06T10:25:01.223Z,75.40
2019-01-06T10:27:49.421Z,74.50
2019-01-06T10:30:37.237Z,74.60
2019-01-06T10:33:12.192Z,74.20
2019-01-06T10:35:44.305Z,78.90
2019-01-06T10:38:22.233Z,82.10
2019-01-06T10:41:03.079Z,83.10
2019-01-06T10:43:51.640Z,81.20
2019-01-06T10:46:28.183Z,77.90
2019-01-06T10:49:12.265Z,79.30
2019-01-06T10:52:00.161Z,79.50
2019-01-06T10:54:47.331Z,79.70
2019-01-06T10:57:35.930Z,76.20
2019-01-06T11:00:15.293Z,77.00
2019-01-06T11:03:03.177Z,76.80
2019-01-06T11:05:47.563Z,78.10
2019-01-06T11:08:34.780Z,77.40
2019-01-06T11:11:06.915Z,75.60
2019-01-06T11:13:47.660Z,77.00
2019-01-06T11:16:35.155Z,78.10
2019-01-06T11:19:07.647Z,77.60
2019-01-06T11:21:39.858Z,77.90
2019-01-06T11:24:14.842Z,77.70
2019-01-06T11:26:59.065Z,77.90
2019-01-06T11:29:47.200Z,78.20
2019-01-06T11:32:29.183Z,77.60
2019-01-06T11:35:16.680Z,75.80
2019-01-06T11:38:00.645Z,75.20
2019-01-06T11:40:32.849Z,76.50
2019-01-06T11:43:21.403Z,78.40
2019-01-06T11:45:53.553Z,76.10
2019-01-06T11:48:38.516Z,76.40
2019-01-06T11:51:17.965Z,75.80
2019-01-06T11:54:05.385Z,72.80
2019-01-06T11:56:37.526Z,71.30
2019-01-06T11:59:26.050Z,71.00
2019-01-06T12:02:05.150Z,67.30
2019-01-06T12:04:38.875Z,71.90
2019-01-06T12:07:27.424Z,75.10
2019-01-06T12:10:00.693Z,72.10
2019-01-06T12:12:50.575Z,80.60
2019-01-06T12:15:22.662Z,84.70
2019-01-06T12:17:57.693Z,86.50
2019-01-06T12:20:35.644Z,87.80
2019-01-06T12:23:08.582Z,88.60
2019-01-06T12:25:46.697Z,88.50
2019-01-06T12:28:24.833Z,88.30
2019-01-06T12:31:09.205Z,88.30
2019-01-06T12:33:42.320Z,87.70
2019-01-06T12:36:17.145Z,86.80
2019-01-06T12:38:49.279Z,85.90
2019-01-06T12:41:19.520Z,84.50
2019-01-06T12:44:04.600Z,79.50
2019-01-06T12:46:52.504Z,77.10
2019-01-06T12:49:33.193Z,72.70
2019-01-06T12:52:20.641Z,74.30
2019-01-06T12:54:52.743Z,74.30
2019-01-06T12:57:44.352Z,70.50
2019-01-06T13:00:14.054Z,67.70
2019-01-06T13:03:03.983Z,67.40
2019-01-06T13:05:44.862Z,68.10
2019-01-06T13:08:17.069Z,69.30
2019-01-06T13:10:51.712Z,67.20
2019-01-06T13:13:28.142Z,65.40
2019-01-06T13:16:13.399Z,65.10
2019-01-06T13:18:48.418Z,64.30
2019-01-06T13:21:20.563Z,63.40
2019-01-06T13:24:08.636Z,62.70
2019-01-06T13:26:43.683Z,62.70
2019-01-06T13:29:32.195Z,64.90
2019-01-06T13:32:13.415Z,66.60
2019-01-06T13:34:43.688Z,66.20
2019-01-06T13:37:32.286Z,66.50
2019-01-06T13:40:13.411Z,67.30
2019-01-06T13:42:57.428Z,67.70
2019-01-06T13:45:32.371Z,67.80
2019-01-06T13:48:13.482Z,65.10
2019-01-06T13:51:03.776Z,65.50
2019-01-06T13:53:51.910Z,75.10
2019-01-06T13:56:40.051Z,65.20
2019-01-06T13:59:18.211Z,65.50
2019-01-06T14:01:53.258Z,65.40
2019-01-06T14:04:34.208Z,65.50
2019-01-06T14:07:24.366Z,66.10
2019-01-06T14:09:54.600Z,67.20
2019-01-06T14:12:33.543Z,65.70
2019-01-06T14:15:33.569Z,66.10
2019-01-06T14:18:20.551Z,66.30
2019-01-06T14:21:01.524Z,67.20
2019-01-06T14:23:31.785Z,65.10
2019-01-06T14:26:02.038Z,65.60
2019-01-06T14:28:50.647Z,66.00
2019-01-06T14:31:28.415Z,66.20
2019-01-06T14:34:00.574Z,63.80
2019-01-06T14:36:32.724Z,64.50
2019-01-06T14:39:14.642Z,61.50
2019-01-06T14:42:03.677Z,64.10
2019-01-06T14:44:39.940Z,64.80
2019-01-06T14:47:16.208Z,64.10
2019-01-06T14:49:57.231Z,64.30
2019-01-06T14:52:30.199Z,65.60
2019-01-06T14:55:11.032Z,65.20
2019-01-06T14:57:43.165Z,65.30
2019-01-06T15:00:31.701Z,66.20
2019-01-06T15:03:19.807Z,66.80
2019-01-06T15:05:56.122Z,68.60
2019-01-06T15:08:30.687Z,68.20
2019-01-06T15:11:14.715Z,66.80
2019-01-06T15:13:50.216Z,65.90
2019-01-06T15:16:22.369Z,65.60
2019-01-06T15:18:58.304Z,65.80
2019-01-06T15:21:36.391Z,65.80
2019-01-06T15:24:26.571Z,67.80
2019-01-06T15:26:56.867Z,66.30
2019-01-06T15:29:34.980Z,65.10
2019-01-06T15:32:11.401Z,65.20
2019-01-06T15:34:49.398Z,64.50
2019-01-06T15:37:25.197Z,66.40
2019-01-06T15:39:55.489Z,65.30
2019-01-06T15:42:43.618Z,64.10
2019-01-06T15:45:21.219Z,64.10
2019-01-06T15:47:59.600Z,66.30
2019-01-06T15:50:31.682Z,67.00
2019-01-06T15:53:07.700Z,67.20
2019-01-06T15:58:27.796Z,67.00
2019-01-06T16:01:16.417Z,64.30
2019-01-06T16:04:06.567Z,65.10
2019-01-06T16:06:44.568Z,66.20
2019-01-06T16:09:25.695Z,66.20
2019-01-06T16:12:15.265Z,66.90
2019-01-06T16:14:47.421Z,67.60
2019-01-06T16:17:35.858Z,67.10
2019-01-06T16:20:08.152Z,67.40
2019-01-06T16:22:40.295Z,67.30
2019-01-06T16:25:28.726Z,67.20
2019-01-06T16:28:16.825Z,69.20
2019-01-06T16:30:48.948Z,68.80
2019-01-06T16:33:36.268Z,68.60
2019-01-06T16:36:17.158Z,66.70
2019-01-06T16:38:55.067Z,70.00
2019-01-06T16:41:43.586Z,69.00
2019-01-06T16:44:30.442Z,70.10
2019-01-06T16:47:10.280Z,67.80
2019-01-06T16:49:45.535Z,68.20
2019-01-06T16:52:26.932Z,69.00
2019-01-06T16:55:05.279Z,67.40
2019-01-06T16:57:53.502Z,67.70
2019-01-06T17:00:43.801Z,67.40
2019-01-06T17:03:21.857Z,68.60
2019-01-06T17:05:54.031Z,70.00
2019-01-06T17:08:26.967Z,71.20
2019-01-06T17:11:14.164Z,71.60
2019-01-06T17:13:46.256Z,69.50
2019-01-06T17:16:18.427Z,69.90
2019-01-06T17:19:05.741Z,72.70
2019-01-06T17:21:46.777Z,70.80
2019-01-06T17:24:35.580Z,69.20
2019-01-06T17:27:08.832Z,71.00
2019-01-06T17:29:41.025Z,71.00
2019-01-06T17:32:22.172Z,70.60
2019-01-06T17:34:54.301Z,70.90
2019-01-06T17:37:38.772Z,71.00
2019-01-06T17:40:28.931Z,71.00
2019-01-06T17:43:16.862Z,70.60
2019-01-06T17:45:47.137Z,71.50
2019-01-06T17:48:19.339Z,71.70
2019-01-06T17:51:00.507Z,73.60
2019-01-06T17:53:38.255Z,73.20
2019-01-06T17:56:17.232Z,72.70
2019-01-06T17:58:58.838Z,73.20
2019-01-06T18:01:39.937Z,73.70
2019-01-06T18:04:28.473Z,73.50
2019-01-06T18:07:03.504Z,74.60
2019-01-06T18:09:50.945Z,75.50
2019-01-06T18:12:32.061Z,75.80
2019-01-06T18:15:20.536Z,75.70
2019-01-06T18:18:04.635Z,74.50
2019-01-06T18:20:51.748Z,75.50
2019-01-06T18:23:29.770Z,76.30
2019-01-06T18:26:18.577Z,75.60
2019-01-06T18:28:54.145Z,73.00
2019-01-06T18:31:32.266Z,73.60
2019-01-06T18:34:04.401Z,71.60
2019-01-06T18:36:39.218Z,71.70
2019-01-06T18:39:33.665Z,70.40
2019-01-06T18:42:21.994Z,67.60
2019-01-06T18:45:12.041Z,68.90
2019-01-06T18:48:01.893Z,70.20
2019-01-06T18:50:41.203Z,70.00
2019-01-06T18:53:22.172Z,70.10
2019-01-06T18:56:00.045Z,70.30
2019-01-06T18:58:48.465Z,68.80
2019-01-06T19:01:20.631Z,68.40
2019-01-06T19:04:08.907Z,69.60
2019-01-06T19:06:53.184Z,70.40
2019-01-06T19:09:27.347Z,69.80
2019-01-06T19:11:59.531Z,69.70
2019-01-06T19:14:38.987Z,69.60
2019-01-06T19:17:19.700Z,70.00
2019-01-06T19:19:51.927Z,71.10
2019-01-06T19:22:42.225Z,70.50
2019-01-06T19:25:15.160Z,70.00
2019-01-06T19:27:50.033Z,69.60
2019-01-06T19:30:27.795Z,70.30
2019-01-06T19:33:16.090Z,71.40
2019-01-06T19:36:04.124Z,71.40
2019-01-06T19:38:36.286Z,68.30
2019-01-06T19:41:10.828Z,67.20
2019-01-06T19:43:59.460Z,68.10
2019-01-06T19:46:35.291Z,68.30
2019-01-06T19:49:10.232Z,68.50
2019-01-06T19:51:48.645Z,68.60
2019-01-06T19:54:31.713Z,68.90
2019-01-06T19:57:06.420Z,70.20
2019-01-06T19:59:41.623Z,69.70
2019-01-06T20:02:17.347Z,70.20
2019-01-06T20:04:56.422Z,71.30
2019-01-06T20:07:34.004Z,71.50
2019-01-06T20:10:10.929Z,72.40
2019-01-06T20:12:43.129Z,73.80
2019-01-06T20:15:31.378Z,73.60
2019-01-06T20:18:06.246Z,73.60
2019-01-06T20:20:38.488Z,74.10
2019-01-06T20:23:27.042Z,74.40
2019-01-06T20:26:01.935Z,73.60
2019-01-06T20:28:36.788Z,73.30
2019-01-06T20:31:11.388Z,73.90
2019-01-06T20:33:56.716Z,72.00
2019-01-06T20:36:44.763Z,72.00
2019-01-06T20:39:32.728Z,73.70
2019-01-06T20:42:20.923Z,74.50
2019-01-06T20:44:58.798Z,74.50
2019-01-06T20:47:37.806Z,75.20
2019-01-06T20:50:26.339Z,75.20
2019-01-06T20:53:04.450Z,74.00
2019-01-06T20:55:36.603Z,72.30
2019-01-06T20:58:20.367Z,71.70
2019-01-06T21:01:08.971Z,71.80
2019-01-06T21:03:57.537Z,71.20
2019-01-06T21:06:29.720Z,71.70
2019-01-06T21:09:10.942Z,71.90
2019-01-06T21:11:59.451Z,71.70
2019-01-06T21:14:47.888Z,72.50
2019-01-06T21:17:36.080Z,72.30
2019-01-06T21:20:25.661Z,73.00
2019-01-06T21:22:57.905Z,72.40
2019-01-06T21:25:36.115Z,70.60
2019-01-06T21:28:08.282Z,70.80
2019-01-06T21:30:56.626Z,70.50
2019-01-06T21:33:34.742Z,70.60
2019-01-06T21:36:06.974Z,71.80
2019-01-06T21:38:54.760Z,70.80
2019-01-06T21:41:43.380Z,71.30
2019-01-06T21:44:27.144Z,71.90
2019-01-06T21:47:15.659Z,72.20
2019-01-06T21:50:00.025Z,72.80
2019-01-06T21:52:35.155Z,73.70
2019-01-06T21:55:12.504Z,72.70
2019-01-06T21:58:00.030Z,70.60
2019-01-06T22:00:35.846Z,70.20
2019-01-06T22:03:08.119Z,69.50
2019-01-06T22:05:40.244Z,70.20
2019-01-06T22:08:27.591Z,70.70
2019-01-06T22:10:57.853Z,71.10
2019-01-06T22:13:30.015Z,71.70
2019-01-06T22:16:05.779Z,71.80
2019-01-06T22:18:36.058Z,72.10
2019-01-06T22:21:15.325Z,72.00
2019-01-06T22:24:03.709Z,71.80
2019-01-06T22:26:45.010Z,72.20
2019-01-06T22:29:23.203Z,72.10
2019-01-06T22:32:08.285Z,72.70
2019-01-06T22:34:43.108Z,73.50
2019-01-06T22:37:28.439Z,73.50
2019-01-06T22:40:16.597Z,73.10
2019-01-06T22:43:06.848Z,72.80
2019-01-06T22:45:39.267Z,73.30
2019-01-06T22:48:27.348Z,73.00
2019-01-06T22:51:15.862Z,73.20
2019-01-06T22:53:50.681Z,73.40
2019-01-06T22:56:22.850Z,72.80
2019-01-06T22:59:10.393Z,73.20
2019-01-06T23:02:00.488Z,73.00
2019-01-06T23:04:46.326Z,72.50
2019-01-06T23:07:34.852Z,73.00
2019-01-06T23:10:11.008Z,73.30
2019-01-06T23:12:43.181Z,73.80
2019-01-06T23:15:16.169Z,74.20
2019-01-06T23:17:48.295Z,93.40
2019-01-06T23:20:32.022Z,95.70
2019-01-06T23:23:19.183Z,80.90
2019-01-06T23:25:54.032Z,75.50
2019-01-06T23:28:26.157Z,75.60
2019-01-06T23:31:08.860Z,74.10
2019-01-06T23:33:44.016Z,74.30
2019-01-06T23:36:18.867Z,75.00
2019-01-06T23:39:07.282Z,75.60
2019-01-06T23:41:39.447Z,75.30
2019-01-06T23:44:27.817Z,74.50
2019-01-06T23:46:59.988Z,75.10
2019-01-06T23:49:40.655Z,75.20
2019-01-06T23:52:12.817Z,75.70
2019-01-06T23:55:02.967Z,76.00
2019-01-06T23:57:35.128Z,76.20
